Lemoore, California
Current Conditions -  °F | °C
As of 12:53 PM on Thursday 18 Dec 2014 (Local Time) from KHJO Reporting Station
Clear Clear  
Wind Chill: 58°   Ceiling: Unl
Heat Index: 58°   Visibility: 10mi
Dew Point: 44°   Wind: 3mph
Humidity: 60%   Direction: 230°SW
Pressure: 30.18"   Gusts: NA
Location:  36.3°N, 119.78°W
Report Text: KHJO 182053Z AUTO 23003KT 10SM CLR 14/07 A3018 RMK AO2 SLP222 T01440067 58013
Loading
Personal Weather Stations






























Interactive Weather Map New forecast layout! Learn more

10-Day Weather Forecast

Advertisements
Track Severe Weather on mobile